createdAt,value
2022-11-25T00:01:46.516Z,19.70
2022-11-25T00:04:16.009Z,20.35
2022-11-25T00:06:43.939Z,19.95
2022-11-25T00:09:12.845Z,21.33
2022-11-25T00:11:42.246Z,21.17
2022-11-25T00:14:14.332Z,17.90
2022-11-25T00:16:46.784Z,17.45
2022-11-25T00:19:17.406Z,20.45
2022-11-25T00:21:45.124Z,23.63
2022-11-25T00:24:15.464Z,17.50
2022-11-25T00:26:43.149Z,20.20
2022-11-25T00:29:14.197Z,17.13
2022-11-25T00:31:42.226Z,17.85
2022-11-25T00:34:13.807Z,15.02
2022-11-25T00:36:43.230Z,19.48
2022-11-25T00:39:12.542Z,19.98
2022-11-25T00:41:58.341Z,23.17
2022-11-25T00:44:39.592Z,16.40
2022-11-25T00:47:10.150Z,20.33
2022-11-25T00:49:38.656Z,21.80
2022-11-25T00:52:08.365Z,16.05
2022-11-25T00:54:36.320Z,18.10
2022-11-25T00:57:04.369Z,17.75
2022-11-25T00:59:32.081Z,24.48
2022-11-25T01:02:00.232Z,19.25
2022-11-25T01:04:27.858Z,25.33
2022-11-25T01:06:56.811Z,22.35
2022-11-25T01:09:25.848Z,22.38
2022-11-25T01:11:54.593Z,21.60
2022-11-25T01:14:23.416Z,22.10
2022-11-25T01:16:52.089Z,22.30
2022-11-25T01:19:21.069Z,26.00
2022-11-25T01:21:48.766Z,29.17
2022-11-25T01:24:17.781Z,24.05
2022-11-25T01:26:46.959Z,26.08
2022-11-25T01:29:17.383Z,23.55
2022-11-25T01:31:46.369Z,31.05
2022-11-25T01:34:16.366Z,23.55
2022-11-25T01:36:44.578Z,21.13
2022-11-25T01:39:16.887Z,24.88
2022-11-25T01:41:46.801Z,26.17
2022-11-25T01:44:16.448Z,22.70
2022-11-25T01:46:48.945Z,21.80
2022-11-25T01:49:20.252Z,24.20
2022-11-25T01:51:51.815Z,21.40
2022-11-25T01:54:25.090Z,22.27
2022-11-25T01:56:58.191Z,24.02
2022-11-25T01:59:26.625Z,28.13
2022-11-25T02:01:55.267Z,23.50
2022-11-25T02:04:26.592Z,23.42
2022-11-25T02:06:58.712Z,25.00
2022-11-25T02:09:28.159Z,19.80
2022-11-25T02:11:58.019Z,20.77
2022-11-25T02:14:27.213Z,19.70
2022-11-25T02:16:55.056Z,19.80
2022-11-25T02:19:26.204Z,21.98
2022-11-25T02:22:01.030Z,20.38
2022-11-25T02:24:36.528Z,20.95
2022-11-25T02:27:06.272Z,19.38
2022-11-25T02:29:34.568Z,20.85
2022-11-25T02:32:02.279Z,17.08
2022-11-25T02:34:30.077Z,19.42
2022-11-25T02:36:57.829Z,19.77
2022-11-25T02:39:25.991Z,19.92
2022-11-25T02:41:56.923Z,17.02
2022-11-25T02:44:26.265Z,19.20
2022-11-25T02:46:54.480Z,19.23
2022-11-25T02:49:22.237Z,18.55
2022-11-25T02:51:52.208Z,18.63
2022-11-25T02:54:19.867Z,21.05
2022-11-25T02:56:47.448Z,22.30
2022-11-25T02:59:15.518Z,20.67
2022-11-25T03:01:44.790Z,24.23
2022-11-25T03:04:12.560Z,19.77
2022-11-25T03:06:40.180Z,23.92
2022-11-25T03:09:08.196Z,26.70
2022-11-25T03:11:56.763Z,24.25
2022-11-25T03:14:24.671Z,21.77
2022-11-25T03:16:53.766Z,19.00
2022-11-25T03:19:21.492Z,21.27
2022-11-25T03:21:49.133Z,20.80
2022-11-25T03:24:16.709Z,20.23
2022-11-25T03:26:48.186Z,20.35
2022-11-25T03:29:15.726Z,19.30
2022-11-25T03:31:43.466Z,21.27
2022-11-25T03:34:13.570Z,20.52
2022-11-25T03:36:41.774Z,19.25
2022-11-25T03:39:10.534Z,18.95
2022-11-25T03:41:38.808Z,22.33
2022-11-25T03:44:06.819Z,22.63
2022-11-25T03:46:34.714Z,19.98
2022-11-25T03:49:05.189Z,16.35
2022-11-25T03:51:34.479Z,23.77
2022-11-25T03:54:02.154Z,21.27
2022-11-25T03:56:33.760Z,22.35
2022-11-25T03:59:01.452Z,20.08
2022-11-25T04:01:30.145Z,19.63
2022-11-25T04:03:57.756Z,17.42
2022-11-25T04:06:25.359Z,18.50
2022-11-25T04:08:56.173Z,28.15
2022-11-25T04:11:44.418Z,27.38
2022-11-25T04:14:12.541Z,23.42
2022-11-25T04:16:40.223Z,27.58
2022-11-25T04:19:08.389Z,23.00
2022-11-25T04:21:36.096Z,27.08
2022-11-25T04:24:05.554Z,24.80
2022-11-25T04:26:35.018Z,23.75
2022-11-25T04:29:02.862Z,24.33
2022-11-25T04:31:30.463Z,23.67
2022-11-25T04:33:58.720Z,22.38
2022-11-25T04:36:26.499Z,22.90
2022-11-25T04:38:55.808Z,24.27
2022-11-25T04:41:24.886Z,21.13
2022-11-25T04:43:52.612Z,23.00
2022-11-25T04:46:23.296Z,21.80
2022-11-25T04:48:52.254Z,20.83
2022-11-25T04:51:21.544Z,20.80
2022-11-25T04:53:53.032Z,18.60
2022-11-25T04:56:22.876Z,23.73
2022-11-25T04:59:11.956Z,18.05
2022-11-25T05:01:46.641Z,16.98
2022-11-25T05:04:37.299Z,21.58
2022-11-25T05:07:05.134Z,19.55
2022-11-25T05:09:33.099Z,18.13
2022-11-25T05:12:17.350Z,21.15
2022-11-25T05:14:46.481Z,20.05
2022-11-25T05:17:16.033Z,20.63
2022-11-25T05:19:44.316Z,15.27
2022-11-25T05:22:12.642Z,18.63
2022-11-25T05:24:41.499Z,20.10
2022-11-25T05:27:09.302Z,18.70
2022-11-25T05:29:37.512Z,18.58
2022-11-25T05:32:07.482Z,20.23
2022-11-25T05:34:35.630Z,18.27
2022-11-25T05:37:04.175Z,16.90
2022-11-25T05:39:34.429Z,19.17
2022-11-25T05:42:18.045Z,13.27
2022-11-25T05:44:46.258Z,15.57
2022-11-25T05:47:15.392Z,15.23
2022-11-25T05:49:43.569Z,19.50
2022-11-25T05:52:11.277Z,15.85
2022-11-25T05:54:47.964Z,17.10
2022-11-25T05:57:15.659Z,16.52
2022-11-25T05:59:47.885Z,12.85
2022-11-25T06:02:23.493Z,14.23
2022-11-25T06:04:52.416Z,17.67
2022-11-25T06:07:20.282Z,12.70
2022-11-25T06:09:51.236Z,15.38
2022-11-25T06:12:21.630Z,15.15
2022-11-25T06:14:51.719Z,18.83
2022-11-25T06:17:19.687Z,15.98
2022-11-25T06:20:08.290Z,19.23
2022-11-25T06:22:36.236Z,19.63
2022-11-25T06:25:04.584Z,15.95
2022-11-25T06:27:50.392Z,13.32
2022-11-25T06:30:22.896Z,15.50
2022-11-25T06:33:03.668Z,13.27
2022-11-25T06:35:32.667Z,15.77
2022-11-25T06:38:02.940Z,17.45
2022-11-25T06:40:30.869Z,14.25
2022-11-25T06:43:01.494Z,18.27
2022-11-25T06:45:29.396Z,13.75
2022-11-25T06:48:00.224Z,19.92
2022-11-25T06:50:28.039Z,15.18
2022-11-25T06:52:57.085Z,13.48
2022-11-25T06:55:24.827Z,12.75
2022-11-25T06:57:59.088Z,12.65
2022-11-25T07:00:42.779Z,13.52
2022-11-25T07:03:10.460Z,12.57
2022-11-25T07:05:38.320Z,13.05
2022-11-25T07:08:10.254Z,15.07
2022-11-25T07:10:37.973Z,13.82
2022-11-25T07:13:07.930Z,17.05
2022-11-25T07:15:36.049Z,13.35
2022-11-25T07:18:03.724Z,9.95
2022-11-25T07:20:32.724Z,11.95
2022-11-25T07:23:00.316Z,13.55
2022-11-25T07:25:30.790Z,13.70
2022-11-25T07:28:00.778Z,12.35
2022-11-25T07:31:21.736Z,11.80
2022-11-25T07:33:16.391Z,13.52
2022-11-25T07:35:44.184Z,12.65
2022-11-25T07:38:11.913Z,14.38
2022-11-25T07:40:40.924Z,12.30
2022-11-25T07:43:09.789Z,11.95
2022-11-25T07:45:39.274Z,15.90
2022-11-25T07:48:09.402Z,11.50
2022-11-25T07:50:37.255Z,12.25
2022-11-25T07:53:04.980Z,13.65
2022-11-25T07:56:00.979Z,15.23
2022-11-25T07:58:28.607Z,15.40
2022-11-25T08:00:56.372Z,11.43
2022-11-25T08:03:24.060Z,17.38
2022-11-25T08:05:51.681Z,14.55
2022-11-25T08:08:19.398Z,11.90
2022-11-25T08:10:53.112Z,14.50
2022-11-25T08:13:22.465Z,12.50
2022-11-25T08:15:50.192Z,12.45
2022-11-25T08:18:18.357Z,12.98
2022-11-25T08:20:45.986Z,13.93
2022-11-25T08:23:13.651Z,16.45
2022-11-25T08:25:50.105Z,12.90
2022-11-25T08:28:18.141Z,12.02
2022-11-25T08:30:47.921Z,12.65
2022-11-25T08:33:15.674Z,12.65
2022-11-25T08:35:43.344Z,14.43
2022-11-25T08:38:12.956Z,14.75
2022-11-25T08:40:45.046Z,11.35
2022-11-25T08:43:12.924Z,12.20
2022-11-25T08:45:41.506Z,13.02
2022-11-25T08:48:12.313Z,11.73
2022-11-25T08:50:40.273Z,13.30
2022-11-25T08:53:07.896Z,9.10
2022-11-25T08:55:37.024Z,14.43
2022-11-25T08:58:04.827Z,11.45
2022-11-25T09:00:32.553Z,10.52
2022-11-25T09:03:04.523Z,12.02
2022-11-25T09:05:44.051Z,14.48
2022-11-25T09:08:18.686Z,10.38
2022-11-25T09:10:51.400Z,11.00
2022-11-25T09:13:23.431Z,12.48
2022-11-25T09:15:51.567Z,11.85
2022-11-25T09:18:20.434Z,9.55
2022-11-25T09:20:49.495Z,12.52
2022-11-25T09:23:17.159Z,14.18
2022-11-25T09:25:52.293Z,16.38
2022-11-25T09:28:19.976Z,12.85
2022-11-25T09:30:48.023Z,12.57
2022-11-25T09:33:16.508Z,10.23
2022-11-25T09:35:44.386Z,10.38
2022-11-25T09:38:13.433Z,9.27
2022-11-25T09:40:46.249Z,14.02
2022-11-25T09:43:39.170Z,11.02
2022-11-25T09:46:32.406Z,13.00
2022-11-25T09:49:06.905Z,20.15
2022-11-25T09:51:46.916Z,14.13
2022-11-25T09:54:22.477Z,15.07
2022-11-25T09:56:54.311Z,11.63
2022-11-25T09:59:29.588Z,11.30
2022-11-25T10:02:03.720Z,13.18
2022-11-25T10:04:35.624Z,11.00
2022-11-25T10:07:05.155Z,12.48
2022-11-25T10:09:36.366Z,14.05
2022-11-25T10:12:08.030Z,13.18
2022-11-25T10:14:43.787Z,9.40
2022-11-25T10:17:19.332Z,14.73
2022-11-25T10:19:53.939Z,10.50
2022-11-25T10:22:25.233Z,13.70
2022-11-25T10:24:58.415Z,17.92
2022-11-25T10:27:32.372Z,13.73
2022-11-25T10:30:05.377Z,16.42
2022-11-25T10:32:40.844Z,14.63
2022-11-25T10:35:20.105Z,14.18
2022-11-25T10:37:49.457Z,16.52
2022-11-25T10:40:18.755Z,15.95
2022-11-25T10:42:46.544Z,13.35
2022-11-25T10:45:14.219Z,13.23
2022-11-25T10:48:14.635Z,12.95
2022-11-25T10:50:54.462Z,16.38
2022-11-25T10:53:25.505Z,11.70
2022-11-25T10:56:06.080Z,13.20
2022-11-25T10:58:35.629Z,13.75
2022-11-25T11:01:25.662Z,12.57
2022-11-25T11:03:55.884Z,13.07
2022-11-25T11:06:36.224Z,14.75
2022-11-25T11:09:04.291Z,13.35
2022-11-25T11:11:33.719Z,16.52
2022-11-25T11:14:14.470Z,16.13
2022-11-25T11:16:45.353Z,11.52
2022-11-25T11:19:23.883Z,19.45
2022-11-25T11:21:52.581Z,15.85
2022-11-25T11:24:29.841Z,13.40
2022-11-25T11:27:07.271Z,17.33
2022-11-25T11:29:36.218Z,15.13
2022-11-25T11:32:06.365Z,13.65
2022-11-25T11:34:46.487Z,11.05
2022-11-25T11:37:34.641Z,15.20
2022-11-25T11:40:23.060Z,16.67
2022-11-25T11:43:03.852Z,11.98
2022-11-25T11:45:48.144Z,11.38
2022-11-25T11:48:26.008Z,11.23
2022-11-25T11:51:02.546Z,13.27
2022-11-25T11:53:33.563Z,16.50
2022-11-25T11:59:24.463Z,10.98
2022-11-25T12:02:13.661Z,12.27
2022-11-25T12:04:45.656Z,13.38
2022-11-25T12:07:19.529Z,10.77
2022-11-25T12:09:53.582Z,10.93
2022-11-25T12:12:27.835Z,15.68
2022-11-25T12:15:05.436Z,13.50
2022-11-25T12:17:37.076Z,14.15
2022-11-25T12:20:14.139Z,16.48
2022-11-25T12:22:48.268Z,16.80
2022-11-25T12:25:20.532Z,16.65
2022-11-25T12:27:54.332Z,9.88
2022-11-25T12:30:24.540Z,17.40
2022-11-25T12:33:04.636Z,13.23
2022-11-25T12:35:42.900Z,19.08
2022-11-25T12:38:20.966Z,15.70
2022-11-25T12:40:54.076Z,13.73
2022-11-25T12:43:28.092Z,13.55
2022-11-25T12:46:07.725Z,19.25
2022-11-25T12:48:41.739Z,14.60
2022-11-25T12:51:20.830Z,15.27
2022-11-25T12:54:00.275Z,18.08
2022-11-25T12:56:42.590Z,12.82
2022-11-25T12:59:31.407Z,11.73
2022-11-25T13:02:21.070Z,11.93
2022-11-25T13:05:32.853Z,12.93
2022-11-25T13:08:03.466Z,14.52
2022-11-25T13:10:44.260Z,14.23
2022-11-25T13:13:26.153Z,12.85
2022-11-25T13:15:57.617Z,15.40
2022-11-25T13:18:29.836Z,16.58
2022-11-25T13:20:58.141Z,12.85
2022-11-25T13:23:30.989Z,19.33
2022-11-25T13:26:37.519Z,14.70
2022-11-25T13:30:02.975Z,18.40
2022-11-25T13:33:06.875Z,16.52
2022-11-25T13:35:51.368Z,16.00
2022-11-25T13:38:58.714Z,12.77
2022-11-25T13:41:37.138Z,15.32
2022-11-25T13:44:19.546Z,13.95
2022-11-25T13:46:49.550Z,17.45
2022-11-25T13:49:24.631Z,15.13
2022-11-25T13:51:55.741Z,15.43
2022-11-25T13:54:28.140Z,22.35
2022-11-25T13:57:02.549Z,16.20
2022-11-25T13:59:37.506Z,21.13
2022-11-25T14:02:25.137Z,21.30
2022-11-25T14:05:00.312Z,18.25
2022-11-25T14:07:34.537Z,19.75
2022-11-25T14:10:20.475Z,17.02
2022-11-25T14:13:01.350Z,16.02
2022-11-25T14:15:45.511Z,19.73
2022-11-25T14:19:21.821Z,20.23
2022-11-25T14:21:48.247Z,15.10
2022-11-25T14:24:30.660Z,17.33
2022-11-25T14:26:59.959Z,16.77
2022-11-25T14:29:36.769Z,16.63
2022-11-25T14:32:09.626Z,13.98
2022-11-25T14:34:41.265Z,16.52
2022-11-25T14:37:15.623Z,13.15
2022-11-25T14:39:50.334Z,11.60
2022-11-25T14:42:22.217Z,13.55
2022-11-25T14:44:52.314Z,14.43
2022-11-25T14:47:23.682Z,16.63
2022-11-25T14:50:18.694Z,13.80
2022-11-25T14:52:43.760Z,14.45
2022-11-25T14:55:13.007Z,17.88
2022-11-25T14:57:44.896Z,14.10
2022-11-25T15:00:17.894Z,16.17
2022-11-25T15:02:55.169Z,15.95
2022-11-25T15:05:26.042Z,17.25
2022-11-25T15:08:02.596Z,11.95
2022-11-25T15:10:40.456Z,14.48
2022-11-25T15:13:15.054Z,11.63
2022-11-25T15:15:46.223Z,11.65
2022-11-25T15:18:19.748Z,18.63
2022-11-25T15:20:50.861Z,12.68
2022-11-25T15:23:24.232Z,16.63
2022-11-25T15:25:55.039Z,16.65
2022-11-25T15:28:22.846Z,13.60
2022-11-25T15:30:58.511Z,15.82
2022-11-25T15:33:27.362Z,15.25
2022-11-25T15:35:55.675Z,17.73
2022-11-25T15:38:37.304Z,17.50
2022-11-25T15:41:09.611Z,13.88
2022-11-25T15:43:45.736Z,18.23
2022-11-25T15:46:14.107Z,18.02
2022-11-25T15:48:46.174Z,16.95
2022-11-25T15:51:33.991Z,14.50
2022-11-25T15:54:06.089Z,21.25
2022-11-25T15:56:38.721Z,20.00
2022-11-25T15:59:06.729Z,24.92
2022-11-25T16:01:35.007Z,18.10
2022-11-25T16:04:18.664Z,15.18
2022-11-25T16:06:55.633Z,20.40
2022-11-25T16:09:25.420Z,21.45
2022-11-25T16:11:54.464Z,20.67
2022-11-25T16:14:27.490Z,17.70
2022-11-25T16:17:02.021Z,18.73
2022-11-25T16:19:38.253Z,24.35
2022-11-25T16:22:14.045Z,27.10
2022-11-25T16:24:48.555Z,19.58
2022-11-25T16:27:23.975Z,23.98
2022-11-25T16:29:57.376Z,19.80
2022-11-25T16:32:26.873Z,18.98
2022-11-25T16:34:57.529Z,19.50
2022-11-25T16:37:25.454Z,21.45
2022-11-25T16:39:53.552Z,22.83
2022-11-25T16:42:23.096Z,23.50
2022-11-25T16:44:52.755Z,21.75
2022-11-25T16:47:23.197Z,23.83
2022-11-25T16:49:51.010Z,32.88
2022-11-25T16:52:18.530Z,24.77
2022-11-25T16:54:47.419Z,24.20
2022-11-25T16:57:18.958Z,20.10
2022-11-25T16:59:53.269Z,21.95
2022-11-25T17:02:24.076Z,21.00
2022-11-25T17:04:52.163Z,22.75
2022-11-25T17:07:35.703Z,24.63
2022-11-25T17:10:03.786Z,24.10
2022-11-25T17:12:34.231Z,27.60
2022-11-25T17:15:06.128Z,25.85
2022-11-25T17:17:34.281Z,19.08
2022-11-25T17:20:02.001Z,20.42
2022-11-25T17:22:34.625Z,23.65
2022-11-25T17:25:08.054Z,19.05
2022-11-25T17:27:35.779Z,18.23
2022-11-25T17:30:07.926Z,20.83
2022-11-25T17:32:36.592Z,20.25
2022-11-25T17:35:13.118Z,24.45
2022-11-25T17:37:41.313Z,23.38
2022-11-25T17:40:10.802Z,25.95
2022-11-25T17:42:38.506Z,27.73
2022-11-25T17:45:13.139Z,24.92
2022-11-25T17:47:44.094Z,25.42
2022-11-25T17:50:20.810Z,26.33
2022-11-25T17:52:52.730Z,32.72
2022-11-25T17:55:23.864Z,28.88
2022-11-25T17:57:59.092Z,28.63
2022-11-25T18:00:28.385Z,26.08
2022-11-25T18:02:56.363Z,27.90
2022-11-25T18:05:26.693Z,19.98
2022-11-25T18:07:54.480Z,28.83
2022-11-25T18:10:25.391Z,30.85
2022-11-25T18:12:54.724Z,24.30
2022-11-25T18:15:24.834Z,38.95
2022-11-25T18:17:59.512Z,28.42
2022-11-25T18:20:29.790Z,26.10
2022-11-25T18:22:58.113Z,29.40
2022-11-25T18:25:28.247Z,36.80
2022-11-25T18:27:57.573Z,26.85
2022-11-25T18:30:30.870Z,34.05
2022-11-25T18:33:01.606Z,33.45
2022-11-25T18:35:35.806Z,32.22
2022-11-25T18:38:04.359Z,33.67
2022-11-25T18:40:32.568Z,29.65
2022-11-25T18:43:03.379Z,35.55
2022-11-25T18:45:34.602Z,34.83
2022-11-25T18:48:10.213Z,32.47
2022-11-25T18:50:37.985Z,34.83
2022-11-25T18:53:05.671Z,34.33
2022-11-25T18:55:33.335Z,37.70
2022-11-25T18:58:02.453Z,37.50
2022-11-25T19:00:33.137Z,38.42
2022-11-25T19:03:02.947Z,39.47
2022-11-25T19:05:32.689Z,39.85
2022-11-25T19:08:00.563Z,39.60
2022-11-25T19:10:30.341Z,39.65
2022-11-25T19:13:00.125Z,37.17
2022-11-25T19:15:28.385Z,38.75
2022-11-25T19:17:58.882Z,38.10
2022-11-25T19:20:30.254Z,38.33
2022-11-25T19:23:01.139Z,42.03
2022-11-25T19:25:29.380Z,43.80
2022-11-25T19:27:59.552Z,38.03
2022-11-25T19:30:32.045Z,41.55
2022-11-25T19:33:02.245Z,38.75
2022-11-25T19:35:34.733Z,48.40
2022-11-25T19:38:02.671Z,46.55
2022-11-25T19:40:34.700Z,41.80
2022-11-25T19:43:05.467Z,45.70
2022-11-25T19:45:33.371Z,34.40
2022-11-25T19:48:06.343Z,33.92
2022-11-25T19:50:38.739Z,35.15
2022-11-25T19:53:07.014Z,37.00
2022-11-25T19:55:34.567Z,37.92
2022-11-25T19:58:02.300Z,37.90
2022-11-25T20:00:30.012Z,39.83
2022-11-25T20:02:57.833Z,34.95
2022-11-25T20:05:30.860Z,38.20
2022-11-25T20:08:00.137Z,32.50
2022-11-25T20:10:30.272Z,33.97
2022-11-25T20:12:59.308Z,28.13
2022-11-25T20:15:27.340Z,31.55
2022-11-25T20:17:59.317Z,31.55
2022-11-25T20:20:30.656Z,30.67
2022-11-25T20:23:02.877Z,28.30
2022-11-25T20:25:31.180Z,32.58
2022-11-25T20:27:58.913Z,28.50
2022-11-25T20:30:29.433Z,28.55
2022-11-25T20:32:57.215Z,28.50
2022-11-25T20:35:26.807Z,35.72
2022-11-25T20:38:00.264Z,25.83
2022-11-25T20:40:37.707Z,31.40
2022-11-25T20:43:05.974Z,26.80
2022-11-25T20:45:33.781Z,27.83
2022-11-25T20:48:01.709Z,34.63
2022-11-25T20:50:31.458Z,25.52
2022-11-25T20:52:59.084Z,25.52
2022-11-25T20:55:27.273Z,29.70
2022-11-25T20:57:56.360Z,26.83
2022-11-25T21:00:26.238Z,24.35
2022-11-25T21:02:55.273Z,24.63
2022-11-25T21:05:23.400Z,25.10
2022-11-25T21:07:51.623Z,29.60
2022-11-25T21:10:25.535Z,24.17
2022-11-25T21:12:54.188Z,28.23
2022-11-25T21:15:24.792Z,26.52
2022-11-25T21:17:53.117Z,22.75
2022-11-25T21:20:21.221Z,23.42
2022-11-25T21:22:52.625Z,27.42
2022-11-25T21:25:22.058Z,29.08
2022-11-25T21:27:50.368Z,25.40
2022-11-25T21:30:20.067Z,22.30
2022-11-25T21:32:49.425Z,23.85
2022-11-25T21:35:17.158Z,29.85
2022-11-25T21:37:45.558Z,24.52
2022-11-25T21:40:28.258Z,23.92
2022-11-25T21:42:55.966Z,25.10
2022-11-25T21:45:23.753Z,23.75
2022-11-25T21:47:52.797Z,26.98
2022-11-25T21:50:22.331Z,21.42
2022-11-25T21:52:50.267Z,22.92
2022-11-25T21:55:24.128Z,20.58
2022-11-25T21:57:52.084Z,19.98
2022-11-25T22:00:25.423Z,17.55
2022-11-25T22:02:54.687Z,20.27
2022-11-25T22:05:25.520Z,24.50
2022-11-25T22:07:55.079Z,18.90
2022-11-25T22:10:23.652Z,27.42
2022-11-25T22:12:51.696Z,25.08
2022-11-25T22:15:21.753Z,20.63
2022-11-25T22:17:58.994Z,18.40
2022-11-25T22:20:30.136Z,22.20
2022-11-25T22:22:58.158Z,25.30
2022-11-25T22:25:27.649Z,25.13
2022-11-25T22:27:55.385Z,16.50
2022-11-25T22:30:24.858Z,23.33
2022-11-25T22:33:02.453Z,16.95
2022-11-25T22:35:30.113Z,20.70
2022-11-25T22:37:57.883Z,17.73
2022-11-25T22:40:25.686Z,24.55
2022-11-25T22:42:55.822Z,22.35
2022-11-25T22:45:29.076Z,20.23
2022-11-25T22:47:59.748Z,20.15
2022-11-25T22:50:31.004Z,18.08
2022-11-25T22:52:59.335Z,18.08
2022-11-25T22:55:29.222Z,18.35
2022-11-25T22:57:58.861Z,18.45
2022-11-25T23:00:28.352Z,20.35
2022-11-25T23:02:57.645Z,30.30
2022-11-25T23:05:32.121Z,13.15
2022-11-25T23:08:02.793Z,21.15
2022-11-25T23:10:32.308Z,21.33
2022-11-25T23:13:00.225Z,25.73
2022-11-25T23:15:27.948Z,17.35
2022-11-25T23:17:57.444Z,21.73
2022-11-25T23:20:29.716Z,22.67
2022-11-25T23:22:59.826Z,24.60
2022-11-25T23:25:28.939Z,21.00
2022-11-25T23:27:56.774Z,23.92
2022-11-25T23:30:24.994Z,23.00
2022-11-25T23:32:54.549Z,20.27
2022-11-25T23:35:30.801Z,19.23
2022-11-25T23:37:59.736Z,16.38
2022-11-25T23:40:29.368Z,18.48
2022-11-25T23:42:57.365Z,20.48
2022-11-25T23:45:26.973Z,19.80
2022-11-25T23:47:56.620Z,20.83
2022-11-25T23:50:27.984Z,17.23
2022-11-25T23:52:59.883Z,20.85
2022-11-25T23:55:32.198Z,18.45
2022-11-25T23:58:02.180Z,20.20
